.
WxDataArchive / Data Records for 2011-09-08
2011-09-07 September 2011 2011-09-09

Data Records for Thursday, 08 September 2011

Time	Temp	Chill	HIndex	Humid	Dewpt	 Wind 	HiWind	WindDir	Rain 	Barom 
-----	----	-----	------	-----	-----	------	------	-------	-----	----- 
00:00	56.0	56.0	56.0	95	54.6	1	4	292	0.00	30.014 
00:05	56.0	56.0	56.0	95	54.6	1	3	315	0.00	30.014 
00:10	56.0	56.0	56.0	95	54.6	1	4	315	0.00	30.014 
00:15	56.0	56.0	56.0	95	54.6	1	3	292	0.00	30.010 
00:20	56.0	56.0	56.0	95	54.6	1	4	292	0.00	30.010 
00:25	56.2	56.2	56.2	94	54.5	1	3	292	0.00	30.010 
00:30	56.2	56.2	56.2	95	54.8	0	2	292	0.00	30.007 
00:35	56.2	56.2	56.2	94	54.5	1	4	270	0.00	30.007 
00:40	56.2	56.2	56.2	94	54.5	1	4	248	0.00	30.007 
00:45	56.3	56.3	56.3	94	54.6	1	4	270	0.00	30.005 
00:50	56.3	56.3	56.3	94	54.6	1	4	292	0.00	30.005 
00:55	56.3	56.3	56.3	94	54.6	1	5	292	0.00	30.005 
01:00	56.3	56.3	56.3	94	54.6	1	4	292	0.00	30.005 
01:05	56.5	56.5	56.5	94	54.8	0	2	292	0.00	30.005 
01:10	56.5	56.5	56.5	94	54.8	1	4	270	0.00	30.005 
01:15	56.5	56.5	56.5	94	54.8	1	4	270	0.00	30.000 
01:20	56.6	56.6	56.6	94	54.9	1	5	270	0.00	30.000 
01:25	56.6	56.6	56.6	94	54.9	1	3	292	0.00	30.000 
01:30	56.6	56.6	56.6	93	54.6	0	3	90	0.00	29.993 
01:35	56.7	56.7	56.7	93	54.7	1	4	270	0.00	29.993 
01:40	56.7	56.7	56.7	93	54.7	1	5	270	0.00	29.993 
01:45	56.7	56.7	56.7	93	54.7	1	4	270	0.00	29.991 
01:50	56.7	56.7	56.7	93	54.7	1	3	315	0.00	29.991 
01:55	56.7	56.7	56.7	93	54.7	1	3	90	0.00	29.991 
02:00	56.7	56.7	56.7	93	54.7	0	2	270	0.00	29.990 
02:05	56.7	56.7	56.7	93	54.7	1	4	270	0.00	29.990 
02:10	56.7	56.7	56.7	93	54.7	1	4	270	0.00	29.990 
02:15	56.7	56.7	56.7	93	54.7	1	4	292	0.00	29.988 
02:20	56.7	56.7	56.7	93	54.7	1	5	270	0.00	29.988 
02:25	56.7	56.7	56.7	93	54.7	0	3	270	0.00	29.988 
02:30	56.9	56.9	56.9	93	54.9	1	4	292	0.00	29.982 
02:35	56.9	56.9	56.9	93	54.9	0	3	338	0.00	29.982 
02:40	56.9	56.9	56.9	93	54.9	1	4	338	0.00	29.982 
02:45	56.9	56.9	56.9	93	54.9	1	5	338	0.00	29.978 
02:50	56.9	56.9	56.9	93	54.9	0	3	292	0.00	29.978 
02:55	56.9	56.9	56.9	93	54.9	0	3	292	0.00	29.978 
03:00	57.0	57.0	57.0	93	55.0	1	5	270	0.00	29.977 
03:05	57.0	57.0	57.0	92	54.7	1	5	270	0.00	29.977 
03:10	57.0	57.0	57.0	92	54.7	0	3	270	0.00	29.977 
03:15	57.0	57.0	57.0	92	54.7	1	4	338	0.00	29.975 
03:20	57.0	57.0	57.0	92	54.7	1	4	270	0.00	29.975 
03:25	57.0	57.0	57.0	92	54.7	1	3	270	0.00	29.975 
03:30	57.0	57.0	57.0	93	55.0	1	4	292	0.00	29.974 
03:35	57.0	57.0	57.0	93	55.0	0	2	270	0.00	29.974 
03:40	57.0	57.0	57.0	93	55.0	1	5	270	0.00	29.974 
03:45	57.2	57.2	57.2	93	55.2	1	7	315	0.00	29.974 
03:50	57.2	57.2	57.2	93	55.2	0	2	315	0.00	29.974 
03:55	57.3	57.3	57.3	93	55.3	1	4	315	0.00	29.974 
04:00	57.3	57.3	57.3	92	55.0	1	4	248	0.00	29.969 
04:05	57.5	57.5	57.5	92	55.2	1	4	248	0.00	29.969 
04:10	57.5	57.5	57.5	92	55.2	1	3	248	0.00	29.969 
04:15	57.6	57.6	57.6	92	55.3	0	3	292	0.00	29.969 
04:20	57.6	57.6	57.6	92	55.3	0	3	270	0.00	29.969 
04:25	57.6	57.6	57.6	92	55.3	1	5	292	0.00	29.969 
04:30	57.8	57.8	57.8	92	55.5	0	2	270	0.00	29.967 
04:35	57.8	57.8	57.8	92	55.5	0	2	270	0.00	29.967 
04:40	57.8	57.8	57.8	92	55.5	1	3	158	0.00	29.967 
04:45	57.8	57.8	57.8	92	55.5	1	3	0	0.00	29.968 
04:50	58.0	58.0	58.0	92	55.7	1	5	270	0.00	29.968 
04:55	58.0	58.0	58.0	92	55.7	0	3	270	0.00	29.968 
05:00	58.0	58.0	58.0	92	55.7	1	3	270	0.00	29.971 
05:05	58.0	58.0	58.0	92	55.7	1	3	270	0.00	29.971 
05:10	58.0	58.0	58.0	92	55.7	0	4	270	0.00	29.971 
05:15	57.8	57.8	57.8	92	55.5	0	3	270	0.00	29.967 
05:20	57.8	57.8	57.8	92	55.5	0	3	270	0.01	29.967 
05:25	57.8	57.8	57.8	92	55.5	0	3	270	0.00	29.967 
05:30	57.8	57.8	57.8	92	55.5	0	3	270	0.01	29.969 
05:35	57.6	57.6	57.6	93	55.6	0	2	270	0.00	29.969 
05:40	57.6	57.6	57.6	93	55.6	0	3	270	0.00	29.969 
05:45	57.6	57.6	57.6	93	55.6	0	3	270	0.00	29.966 
05:50	57.6	57.6	57.6	93	55.6	0	2	270	0.00	29.966 
05:55	57.6	57.6	57.6	93	55.6	1	3	338	0.00	29.966 
06:00	57.6	57.6	57.6	93	55.6	1	5	270	0.01	29.966 
06:05	57.6	57.6	57.6	94	55.9	0	2	22	0.00	29.966 
06:10	57.6	57.6	57.6	94	55.9	0	2	22	0.00	29.966 
06:15	57.6	57.6	57.6	94	55.9	0	3	22	0.00	29.964 
06:20	57.6	57.6	57.6	94	55.9	1	3	292	0.00	29.964 
06:25	57.6	57.6	57.6	94	55.9	0	3	270	0.00	29.964 
06:30	57.6	57.6	57.6	94	55.9	0	3	270	0.00	29.962 
06:35	57.6	57.6	57.6	94	55.9	0	2	270	0.00	29.962 
06:40	57.6	57.6	57.6	94	55.9	0	2	270	0.00	29.962 
06:45	57.6	57.6	57.6	94	55.9	0	2	270	0.00	29.965 
06:50	57.6	57.6	57.6	94	55.9	1	2	292	0.00	29.965 
06:55	57.6	57.6	57.6	94	55.9	0	4	292	0.00	29.965 
07:00	57.6	57.6	57.6	94	55.9	0	3	292	0.00	29.964 
07:05	57.6	57.6	57.6	94	55.9	0	6	292	0.00	29.964 
07:10	57.6	57.6	57.6	94	55.9	0	6	270	0.00	29.964 
07:15	57.6	57.6	57.6	94	55.9	0	5	270	0.00	29.963 
07:20	57.6	57.6	57.6	94	55.9	0	4	270	0.00	29.963 
07:25	57.6	57.6	57.6	94	55.9	0	2	22	0.00	29.963 
07:30	57.5	57.5	57.5	94	55.8	0	3	22	0.00	29.964 
07:35	57.5	57.5	57.5	94	55.8	0	2	270	0.00	29.964 
07:40	57.5	57.5	57.5	94	55.8	0	3	270	0.00	29.964 
07:45	57.5	57.5	57.5	94	55.8	0	2	270	0.00	29.965 
07:50	57.5	57.5	57.5	94	55.8	0	2	270	0.00	29.965 
07:55	57.5	57.5	57.5	94	55.8	0	2	270	0.01	29.965 
08:00	57.3	57.3	57.3	94	55.6	0	2	270	0.00	29.969 
08:05	57.3	57.3	57.3	94	55.6	0	2	270	0.01	29.969 
08:10	57.3	57.3	57.3	94	55.6	0	3	270	0.00	29.969 
08:15	57.3	57.3	57.3	94	55.6	0	3	270	0.01	29.967 
08:20	57.3	57.3	57.3	94	55.6	0	1	270	0.00	29.967 
08:25	57.5	57.5	57.5	95	56.1	0	3	270	0.00	29.967 
08:30	57.5	57.5	57.5	95	56.1	0	2	270	0.00	29.964 
08:35	57.5	57.5	57.5	95	56.1	0	1	270	0.00	29.964 
08:40	57.5	57.5	57.5	95	56.1	0	3	270	0.00	29.964 
08:45	57.6	57.6	57.6	95	56.2	0	2	270	0.00	29.963 
08:50	57.6	57.6	57.6	95	56.2	0	3	270	0.00	29.963 
08:55	57.6	57.6	57.6	95	56.2	0	3	270	0.00	29.963 
09:00	57.8	57.8	57.8	95	56.4	1	5	270	0.00	29.960 
09:05	57.8	57.8	57.8	95	56.4	0	3	338	0.00	29.960 
09:10	57.8	57.8	57.8	95	56.4	0	2	338	0.00	29.960 
09:15	57.8	57.8	57.8	95	56.4	0	3	338	0.01	29.960 
09:20	57.8	57.8	57.8	95	56.4	0	3	338	0.01	29.960 
09:25	57.8	57.8	57.8	95	56.4	1	3	338	0.02	29.960 
09:30	57.8	57.8	57.8	95	56.4	1	4	292	0.01	29.961 
09:35	57.8	57.8	57.8	95	56.4	0	3	292	0.00	29.961 
09:40	57.8	57.8	57.8	95	56.4	0	2	292	0.00	29.961 
09:45	57.8	57.8	57.8	95	56.4	1	3	315	0.00	29.960 
09:50	58.0	58.0	58.0	95	56.6	1	4	315	0.00	29.960 
09:55	58.0	58.0	58.0	95	56.6	1	6	270	0.00	29.960 
10:00	58.1	58.1	58.1	95	56.7	1	4	270	0.01	29.959 
10:05	58.1	58.1	58.1	95	56.7	1	4	248	0.00	29.959 
10:10	58.1	58.1	58.1	95	56.7	1	3	248	0.00	29.959 
10:15	58.1	58.1	58.1	95	56.7	0	1	0	0.00	29.959 
10:20	58.1	58.1	58.1	95	56.7	0	2	0	0.00	29.959 
10:25	58.3	58.3	58.3	95	56.9	0	3	0	0.01	29.959 
10:30	58.3	58.3	58.3	95	56.9	0	4	270	0.00	29.958 
10:35	58.4	58.4	58.4	95	57.0	1	5	270	0.00	29.958 
10:40	58.4	58.4	58.4	95	57.0	1	3	45	0.00	29.958 
10:45	58.4	58.4	58.4	95	57.0	1	4	270	0.00	29.959 
10:50	58.6	58.6	58.6	95	57.2	0	3	270	0.00	29.959 
10:55	58.9	58.9	58.9	95	57.5	0	5	292	0.01	29.959 
11:00	58.9	58.9	58.9	95	57.5	1	4	270	0.00	29.958 
11:05	59.0	59.0	59.0	96	57.9	1	4	292	0.00	29.958 
11:10	59.2	59.2	59.2	96	58.1	1	4	292	0.00	29.958 
11:15	59.3	59.3	59.3	95	57.9	0	4	292	0.00	29.958 
11:20	59.3	59.3	59.3	95	57.9	0	3	270	0.00	29.958 
11:25	59.5	59.5	59.5	96	58.4	0	2	270	0.00	29.958 
11:30	59.6	59.6	59.6	95	58.2	1	5	338	0.00	29.953 
11:35	59.6	59.6	59.6	95	58.2	1	4	315	0.00	29.953 
11:40	59.8	59.8	59.8	95	58.4	0	2	248	0.00	29.953 
11:45	59.8	59.8	59.8	95	58.4	0	2	248	0.00	29.951 
11:50	59.9	59.9	59.9	95	58.5	0	2	0	0.00	29.951 
11:55	59.9	59.9	59.9	95	58.5	1	6	0	0.00	29.951 
12:00	59.9	59.9	59.9	95	58.5	0	4	45	0.00	29.952 
12:05	59.9	59.9	59.9	95	58.5	0	3	338	0.00	29.952 
12:10	60.1	60.1	60.1	95	58.7	0	3	68	0.00	29.952 
12:15	60.2	60.2	60.2	95	58.8	0	3	338	0.00	29.952 
12:20	60.2	60.2	60.2	95	58.8	0	2	112	0.00	29.952 
12:25	60.2	60.2	60.2	95	58.8	0	3	0	0.00	29.952 
12:30	60.2	60.2	60.2	95	58.8	0	2	225	0.00	29.948 
12:35	60.2	60.2	60.2	95	58.8	0	2	225	0.00	29.948 
12:40	60.2	60.2	60.2	95	58.8	0	3	90	0.00	29.948 
12:45	60.4	60.4	60.4	95	59.0	0	3	315	0.00	29.945 
12:50	60.4	60.4	60.4	95	59.0	0	2	292	0.01	29.945 
12:55	60.5	60.5	60.5	95	59.1	0	3	135	0.00	29.945 
13:00	60.9	60.9	60.9	95	59.5	0	2	135	0.00	29.942 
13:05	61.0	61.0	61.0	95	59.6	0	2	202	0.00	29.942 
13:10	61.0	61.0	61.0	95	59.6	0	2	180	0.01	29.942 
13:15	61.2	61.2	61.2	96	60.0	1	5	112	0.00	29.940 
13:20	61.3	61.3	61.3	96	60.1	0	3	112	0.00	29.940 
13:25	61.5	61.5	61.5	96	60.3	0	3	90	0.01	29.940 
13:30	61.6	61.6	61.6	96	60.4	1	6	90	0.01	29.936 
13:35	61.6	61.6	61.6	95	60.2	1	3	135	0.00	29.936 
13:40	61.8	61.8	61.8	95	60.3	0	2	135	0.01	29.936 
13:45	61.8	61.8	61.8	95	60.3	1	4	68	0.01	29.937 
13:50	61.8	61.8	61.8	96	60.6	1	6	112	0.00	29.937 
13:55	62.0	62.0	62.0	96	60.8	1	4	112	0.01	29.937 
14:00	62.0	62.0	62.0	96	60.8	1	2	135	0.01	29.936 
14:05	62.1	62.1	62.1	96	60.9	0	3	45	0.00	29.936 
14:10	62.1	62.1	62.1	96	60.9	0	3	45	0.00	29.936 
14:15	62.3	62.3	62.3	96	61.1	0	3	45	0.00	29.934 
14:20	62.3	62.3	62.3	96	61.1	1	3	112	0.01	29.934 
14:25	62.4	62.4	62.4	96	61.2	0	2	45	0.00	29.934 
14:30	62.6	62.6	62.6	96	61.4	0	2	135	0.00	29.930 
14:35	62.7	62.7	62.7	96	61.5	1	5	112	0.00	29.930 
14:40	62.7	62.7	62.7	96	61.5	1	3	112	0.00	29.930 
14:45	62.7	62.7	62.7	96	61.5	1	5	112	0.00	29.931 
14:50	62.9	62.9	62.9	96	61.7	0	3	112	0.00	29.931 
14:55	63.1	63.1	63.1	96	61.9	1	3	112	0.00	29.931 
15:00	63.1	63.1	63.1	96	61.9	1	3	112	0.01	29.930 
15:05	63.2	63.2	63.2	96	62.0	0	3	45	0.00	29.930 
15:10	63.2	63.2	63.2	96	62.0	1	4	112	0.00	29.930 
15:15	63.4	63.4	63.4	96	62.2	1	3	112	0.00	29.926 
15:20	63.4	63.4	63.4	96	62.2	0	3	112	0.00	29.926 
15:25	63.5	63.5	63.5	96	62.3	1	4	112	0.00	29.926 
15:30	63.5	63.5	63.5	96	62.3	1	4	112	0.00	29.924 
15:35	63.7	63.7	63.7	96	62.5	1	3	112	0.00	29.924 
15:40	64.0	64.0	64.0	96	62.8	1	5	112	0.00	29.924 
15:45	63.9	63.9	63.9	96	62.7	1	5	112	0.00	29.923 
15:50	64.0	64.0	64.0	96	62.8	1	5	68	0.01	29.923 
15:55	64.0	64.0	64.0	96	62.8	1	3	112	0.00	29.923 
16:00	64.0	64.0	64.0	96	62.8	1	4	112	0.00	29.922 
16:05	64.0	64.0	64.0	96	62.8	1	3	112	0.00	29.922 
16:10	64.0	64.0	64.0	96	62.8	0	2	112	0.00	29.922 
16:15	63.9	63.9	63.9	96	62.7	1	3	112	0.00	29.920 
16:20	63.9	63.9	63.9	96	62.7	1	2	112	0.01	29.920 
16:25	63.9	63.9	63.9	96	62.7	0	2	112	0.00	29.920 
16:30	63.9	63.9	63.9	96	62.7	1	5	112	0.00	29.916 
16:35	63.9	63.9	63.9	96	62.7	1	2	112	0.00	29.916 
16:40	63.9	63.9	63.9	96	62.7	0	2	112	0.00	29.916 
16:45	64.0	64.0	64.0	96	62.8	1	6	135	0.00	29.913 
16:50	64.0	64.0	64.0	96	62.8	2	6	68	0.00	29.913 
16:55	64.2	64.2	64.2	96	63.0	1	3	90	0.00	29.913 
17:00	64.2	64.2	64.2	96	63.0	1	5	90	0.01	29.911 
17:05	64.5	64.5	64.5	96	63.3	1	4	90	0.00	29.911 
17:10	64.3	64.3	64.3	96	63.1	1	4	90	0.00	29.911 
17:15	64.5	64.5	64.5	96	63.3	0	2	90	0.00	29.909 
17:20	64.5	64.5	64.5	96	63.3	1	4	90	0.00	29.909 
17:25	64.5	64.5	64.5	96	63.3	1	4	90	0.01	29.909 
17:30	64.3	64.3	64.3	96	63.1	0	2	90	0.00	29.909 
17:35	64.3	64.3	64.3	95	62.8	1	4	90	0.00	29.909 
17:40	64.2	64.2	64.2	95	62.7	1	4	135	0.00	29.909 
17:45	64.2	64.2	64.2	95	62.7	0	2	135	0.00	29.911 
17:50	64.2	64.2	64.2	95	62.7	1	6	90	0.00	29.911 
17:55	64.2	64.2	64.2	95	62.7	1	4	68	0.00	29.911 
18:00	64.3	64.3	64.3	96	63.1	1	4	68	0.00	29.915 
18:05	64.3	64.3	64.3	95	62.8	1	4	68	0.00	29.915 
18:10	64.5	64.5	64.5	96	63.3	0	4	90	0.00	29.915 
18:15	64.5	64.5	64.5	95	63.0	1	5	90	0.00	29.917 
18:20	64.3	64.3	64.3	95	62.8	1	4	112	0.00	29.917 
18:25	64.5	64.5	64.5	95	63.0	1	5	90	0.00	29.917 
18:30	64.5	64.5	64.5	95	63.0	1	4	90	0.00	29.920 
18:35	64.5	64.5	64.5	95	63.0	1	5	90	0.00	29.920 
18:40	64.7	64.7	64.7	95	63.2	1	3	90	0.00	29.920 
18:45	64.7	64.7	64.7	95	63.2	1	3	90	0.00	29.921 
18:50	64.7	64.7	64.7	95	63.2	1	5	90	0.00	29.921 
18:55	64.7	64.7	64.7	95	63.2	1	4	90	0.00	29.921 
19:00	64.7	64.7	64.7	95	63.2	1	3	90	0.01	29.921 
19:05	64.5	64.5	64.5	95	63.0	1	5	90	0.00	29.921 
19:10	64.5	64.5	64.5	95	63.0	1	3	90	0.00	29.921 
19:15	64.5	64.5	64.5	95	63.0	1	3	90	0.00	29.920 
19:20	64.5	64.5	64.5	95	63.0	1	3	112	0.00	29.920 
19:25	64.5	64.5	64.5	95	63.0	1	3	112	0.01	29.920 
19:30	64.5	64.5	64.5	95	63.0	1	2	112	0.00	29.921 
19:35	64.5	64.5	64.5	95	63.0	1	3	112	0.00	29.921 
19:40	64.5	64.5	64.5	95	63.0	2	4	90	0.00	29.921 
19:45	64.5	64.5	64.5	95	63.0	2	5	90	0.00	29.921 
19:50	64.5	64.5	64.5	95	63.0	1	5	112	0.00	29.921 
19:55	64.5	64.5	64.5	95	63.0	2	9	135	0.00	29.921 
20:00	64.5	64.5	64.5	95	63.0	1	3	90	0.00	29.919 
20:05	64.5	64.5	64.5	95	63.0	2	5	112	0.00	29.919 
20:10	64.5	64.5	64.5	95	63.0	1	3	90	0.00	29.919 
20:15	64.3	64.3	64.3	95	62.8	1	5	112	0.00	29.917 
20:20	64.3	64.3	64.3	95	62.8	2	7	90	0.00	29.917 
20:25	64.3	64.3	64.3	95	62.8	1	5	90	0.00	29.917 
20:30	64.3	64.3	64.3	95	62.8	1	3	90	0.00	29.921 
20:35	64.3	64.3	64.3	95	62.8	1	3	90	0.00	29.921 
20:40	64.2	64.2	64.2	95	62.7	1	4	90	0.00	29.921 
20:45	64.2	64.2	64.2	95	62.7	1	3	90	0.00	29.922 
20:50	64.2	64.2	64.2	95	62.7	1	4	112	0.00	29.922 
20:55	64.2	64.2	64.2	95	62.7	1	5	112	0.00	29.922 
21:00	64.2	64.2	64.2	95	62.7	2	6	90	0.00	29.932 
21:05	64.0	64.0	64.0	95	62.5	2	7	90	0.00	29.932 
21:10	64.0	64.0	64.0	95	62.5	2	5	90	0.00	29.932 
21:15	64.0	64.0	64.0	95	62.5	2	5	90	0.00	29.934 
21:20	64.0	64.0	64.0	96	62.8	1	5	90	0.00	29.934 
21:25	64.0	64.0	64.0	96	62.8	1	4	112	0.00	29.934 
21:30	64.2	64.2	64.2	96	63.0	1	4	112	0.00	29.937 
21:35	64.2	64.2	64.2	96	63.0	1	6	112	0.00	29.937 
21:40	64.2	64.2	64.2	96	63.0	1	5	90	0.00	29.937 
21:45	64.2	64.2	64.2	96	63.0	2	6	90	0.00	29.937 
21:50	64.2	64.2	64.2	96	63.0	2	6	90	0.00	29.937 
21:55	64.2	64.2	64.2	96	63.0	2	6	90	0.00	29.937 
22:00	64.2	64.2	64.2	96	63.0	2	6	90	0.00	29.938 
22:05	64.2	64.2	64.2	95	62.7	2	6	90	0.00	29.938 
22:10	64.2	64.2	64.2	96	63.0	1	4	90	0.00	29.938 
22:15	64.2	64.2	64.2	95	62.7	2	6	90	0.00	29.938 
22:20	64.2	64.2	64.2	95	62.7	1	4	90	0.00	29.938 
22:25	64.2	64.2	64.2	96	63.0	1	4	90	0.00	29.938 
22:30	64.2	64.2	64.2	95	62.7	0	3	90	0.00	29.936 
22:35	64.2	64.2	64.2	95	62.7	1	6	112	0.00	29.936 
22:40	64.2	64.2	64.2	95	62.7	2	8	90	0.00	29.936 
22:45	64.2	64.2	64.2	95	62.7	2	6	90	0.00	29.936 
22:50	64.2	64.2	64.2	96	63.0	1	3	90	0.00	29.936 
22:55	64.2	64.2	64.2	96	63.0	1	3	90	0.00	29.936 
23:00	64.0	64.0	64.0	95	62.5	1	6	90	0.00	29.935 
23:05	64.0	64.0	64.0	96	62.8	1	4	90	0.00	29.935 
23:10	64.0	64.0	64.0	96	62.8	0	2	90	0.00	29.935 
23:15	64.0	64.0	64.0	96	62.8	2	5	90	0.00	29.934 
23:20	64.0	64.0	64.0	96	62.8	1	4	90	0.00	29.934 
23:25	64.0	64.0	64.0	96	62.8	1	3	90	0.00	29.934 
23:30	64.0	64.0	64.0	96	62.8	1	3	90	0.00	29.934 
23:35	64.0	64.0	64.0	96	62.8	1	4	112	0.00	29.934 
23:40	64.0	64.0	64.0	96	62.8	1	3	112	0.00	29.934 
23:45	64.0	64.0	64.0	96	62.8	1	5	112	0.00	29.936 
23:50	64.0	64.0	64.0	96	62.8	2	4	112	0.00	29.936 
23:55	64.0	64.0	64.0	96	62.8	1	3	112	0.00	29.936 

CoCoRaHS
IN-AL-39
A2 Web Hosting
Creative Commons License
GoDaddy
search engine by freefind advanced

loaded 2018-11-17 14:12:15 • last modified 2010-11-18 10:43:29
Privacy PolicyDisclaimer
• wx.awcolley.com is powered by PmWiki v.2002016 •
• all content (unless otherwise noted) © 2018 A W Colley